Lake Worth, FL (33467)

10:02 AM EDT on August 05, 2015 (GMT -0400)
Suburban Lake Worth/Lantana | | Change Station
CLOSE
Current Station
Personal Weather Station
Location: Lake Worth, FL
Elevation: 21 ft
Nearby Weather Stations

Elev 21 ft 26.60 °N, 80.16 °W | Updated 2 seconds ago

Scattered Clouds
Scattered Clouds
87.7 °F
Feels Like 99 °F
N
0.0
Wind Variable Wind from ESE
Gusts 2.0 mph

Today
High -- | Low -- °F
--% Chance of Precip.
Yesterday
High -- | Low -- °F
Precip. -- in
6:47 AM 8:05 PM
Waning Gibbous, 67% visible
Pressure 30.12 in
Visibility 10.0 miles
Clouds Scattered Clouds 2500 ft
Scattered Clouds 3200 ft
Scattered Clouds 25000 ft
Heat Index 99 °F
Dew Point 76.7 °F
Humidity 70%
Rainfall 0.00 in
Snow Depth Not available.
UV 5 out of 12
Pollen 1.90 out of 12
Air Quality Not available.
Flu Activity Not available.
METAR KPBI 051353Z VRB05KT 10SM SCT025 SCT032 SCT250 31/23 A3011 RMK AO2 SLP197 CB DSNT E-SE T03060233 $

More Conditions Fewer Conditions

Pressure 30.12 in
Visibility 10.0 miles
Clouds Scattered Clouds 2500 ft
Scattered Clouds 3200 ft
Scattered Clouds 25000 ft
Heat Index 99 °F
Dew Point 76.7 °F
Humidity 70%
Rainfall 0.00 in
Snow Depth Not available.
UV 5 out of 12
Pollen 1.90 out of 12
Air Quality Not available.
Flu Activity Not available.
METAR KPBI 051353Z VRB05KT 10SM SCT025 SCT032 SCT250 31/23 A3011 RMK AO2 SLP197 CB DSNT E-SE T03060233 $

More Conditions Fewer Conditions

10-Day Weather Forecast

×

Almanac

Astronomy

Aug. 05, 2015 Rise Set
Actual Time
Civil Twilight
Nautical Twilight
Astronomical Twilight
Moon
Length of Visible Light
Length of Day
Tomorrow will be .
, % of the Moon is Illuminated

Today's Extremes

State Highs State Lows

Community

WunderPhotos

Upload Photos

1,844,188 photos uploaded!

WunderBlogs® & News

Nearby

Air Quality

  Air Quality AQ Index Pollutant
Not available.

Snow Depth

Station Depth Elevation

Earthquake Activity

City Distance Mag. Time & Date
Minimum magnitude displayed is 2.5.

Coastal Water Temperatures

Place Temperature

Stations

Nearby Weather Stations

Station Location Temp. Windchill Dew Point Humidity Wind Precip. Elev Updated Type